sensor_id;sensor_type;location;lat;lon;timestamp;P1;durP1;ratioP1;P2;durP2;ratioP2
69240;SDS011;56352;55.750;13.198;2024-02-23T00:00:07;7.00;;;4.80;;
69240;SDS011;56352;55.750;13.198;2024-02-23T00:02:37;7.18;;;5.00;;
69240;SDS011;56352;55.750;13.198;2024-02-23T00:05:04;5.82;;;4.40;;
69240;SDS011;56352;55.750;13.198;2024-02-23T00:07:31;7.88;;;4.90;;
69240;SDS011;56352;55.750;13.198;2024-02-23T00:09:58;7.32;;;4.80;;
69240;SDS011;56352;55.750;13.198;2024-02-23T00:12:24;5.75;;;4.57;;
69240;SDS011;56352;55.750;13.198;2024-02-23T00:14:51;8.20;;;4.95;;
69240;SDS011;56352;55.750;13.198;2024-02-23T00:17:18;6.50;;;4.88;;
69240;SDS011;56352;55.750;13.198;2024-02-23T00:19:46;7.67;;;5.10;;
69240;SDS011;56352;55.750;13.198;2024-02-23T00:22:13;7.38;;;5.45;;
69240;SDS011;56352;55.750;13.198;2024-02-23T00:24:40;7.95;;;5.60;;
69240;SDS011;56352;55.750;13.198;2024-02-23T00:27:07;8.35;;;5.57;;
69240;SDS011;56352;55.750;13.198;2024-02-23T00:29:34;9.25;;;6.15;;
69240;SDS011;56352;55.750;13.198;2024-02-23T00:32:01;10.00;;;6.95;;
69240;SDS011;56352;55.750;13.198;2024-02-23T00:34:28;9.75;;;7.00;;
69240;SDS011;56352;55.750;13.198;2024-02-23T00:36:57;10.30;;;6.20;;
69240;SDS011;56352;55.750;13.198;2024-02-23T00:39:24;8.50;;;6.03;;
69240;SDS011;56352;55.750;13.198;2024-02-23T00:41:50;9.48;;;5.97;;
69240;SDS011;56352;55.750;13.198;2024-02-23T00:44:17;7.78;;;5.40;;
69240;SDS011;56352;55.750;13.198;2024-02-23T00:46:44;8.48;;;5.88;;
69240;SDS011;56352;55.750;13.198;2024-02-23T00:49:11;7.63;;;4.80;;
69240;SDS011;56352;55.750;13.198;2024-02-23T00:51:37;8.90;;;5.10;;
69240;SDS011;56352;55.750;13.198;2024-02-23T00:58:01;7.05;;;4.68;;
69240;SDS011;56352;55.750;13.198;2024-02-23T01:00:28;8.10;;;4.55;;
69240;SDS011;56352;55.750;13.198;2024-02-23T01:02:55;5.93;;;4.30;;
69240;SDS011;56352;55.750;13.198;2024-02-23T01:05:22;6.32;;;4.72;;
69240;SDS011;56352;55.750;13.198;2024-02-23T01:07:48;6.55;;;4.40;;
69240;SDS011;56352;55.750;13.198;2024-02-23T01:10:15;6.28;;;4.30;;
69240;SDS011;56352;55.750;13.198;2024-02-23T01:12:42;6.40;;;4.63;;
69240;SDS011;56352;55.750;13.198;2024-02-23T01:15:08;5.55;;;4.15;;
69240;SDS011;56352;55.750;13.198;2024-02-23T01:17:35;6.75;;;4.53;;
69240;SDS011;56352;55.750;13.198;2024-02-23T01:20:02;6.72;;;4.68;;
69240;SDS011;56352;55.750;13.198;2024-02-23T01:22:29;7.50;;;5.15;;
69240;SDS011;56352;55.750;13.198;2024-02-23T01:24:56;6.50;;;4.78;;
69240;SDS011;56352;55.750;13.198;2024-02-23T01:27:23;7.13;;;5.32;;
69240;SDS011;56352;55.750;13.198;2024-02-23T01:29:49;6.65;;;4.72;;
69240;SDS011;56352;55.750;13.198;2024-02-23T01:32:16;6.32;;;4.50;;
69240;SDS011;56352;55.750;13.198;2024-02-23T01:34:43;6.03;;;4.32;;
69240;SDS011;56352;55.750;13.198;2024-02-23T01:37:09;5.30;;;4.03;;
69240;SDS011;56352;55.750;13.198;2024-02-23T01:39:37;5.50;;;4.00;;
69240;SDS011;56352;55.750;13.198;2024-02-23T01:42:04;6.38;;;4.13;;
69240;SDS011;56352;55.750;13.198;2024-02-23T01:44:31;4.25;;;3.55;;
69240;SDS011;56352;55.750;13.198;2024-02-23T01:46:57;5.43;;;3.38;;
69240;SDS011;56352;55.750;13.198;2024-02-23T01:49:24;4.90;;;3.20;;
69240;SDS011;56352;55.750;13.198;2024-02-23T01:51:57;3.95;;;2.80;;
69240;SDS011;56352;55.750;13.198;2024-02-23T01:54:24;3.15;;;2.50;;
69240;SDS011;56352;55.750;13.198;2024-02-23T01:56:51;5.30;;;3.10;;
69240;SDS011;56352;55.750;13.198;2024-02-23T01:59:18;3.45;;;2.80;;
69240;SDS011;56352;55.750;13.198;2024-02-23T02:01:45;3.25;;;2.65;;
69240;SDS011;56352;55.750;13.198;2024-02-23T02:07:08;4.13;;;2.92;;
69240;SDS011;56352;55.750;13.198;2024-02-23T02:09:47;4.18;;;2.95;;
69240;SDS011;56352;55.750;13.198;2024-02-23T02:12:27;3.65;;;3.17;;
69240;SDS011;56352;55.750;13.198;2024-02-23T02:14:54;3.33;;;2.53;;
69240;SDS011;56352;55.750;13.198;2024-02-23T02:17:22;2.80;;;2.45;;
69240;SDS011;56352;55.750;13.198;2024-02-23T02:19:49;2.85;;;2.40;;
69240;SDS011;56352;55.750;13.198;2024-02-23T02:22:16;2.42;;;1.70;;
69240;SDS011;56352;55.750;13.198;2024-02-23T02:24:43;3.22;;;1.38;;
69240;SDS011;56352;55.750;13.198;2024-02-23T02:27:12;3.95;;;1.67;;
69240;SDS011;56352;55.750;13.198;2024-02-23T02:29:39;1.45;;;1.23;;
69240;SDS011;56352;55.750;13.198;2024-02-23T02:32:06;1.80;;;1.40;;
69240;SDS011;56352;55.750;13.198;2024-02-23T02:34:33;3.60;;;1.55;;
69240;SDS011;56352;55.750;13.198;2024-02-23T02:37:00;1.52;;;1.20;;
69240;SDS011;56352;55.750;13.198;2024-02-23T02:39:27;3.08;;;1.55;;
69240;SDS011;56352;55.750;13.198;2024-02-23T02:41:54;2.88;;;1.00;;
69240;SDS011;56352;55.750;13.198;2024-02-23T02:44:22;1.20;;;1.10;;
69240;SDS011;56352;55.750;13.198;2024-02-23T02:46:49;1.27;;;0.93;;
69240;SDS011;56352;55.750;13.198;2024-02-23T02:49:15;1.50;;;1.20;;
69240;SDS011;56352;55.750;13.198;2024-02-23T02:51:42;3.03;;;1.10;;
69240;SDS011;56352;55.750;13.198;2024-02-23T02:54:12;2.63;;;0.85;;
69240;SDS011;56352;55.750;13.198;2024-02-23T02:56:42;3.95;;;1.25;;
69240;SDS011;56352;55.750;13.198;2024-02-23T02:59:20;1.55;;;0.70;;
69240;SDS011;56352;55.750;13.198;2024-02-23T03:01:49;5.43;;;0.85;;
69240;SDS011;56352;55.750;13.198;2024-02-23T03:04:16;4.10;;;0.80;;
69240;SDS011;56352;55.750;13.198;2024-02-23T03:06:42;2.70;;;0.82;;
69240;SDS011;56352;55.750;13.198;2024-02-23T03:09:09;2.80;;;0.68;;
69240;SDS011;56352;55.750;13.198;2024-02-23T03:11:36;2.63;;;0.57;;
69240;SDS011;56352;55.750;13.198;2024-02-23T03:14:11;0.95;;;0.60;;
69240;SDS011;56352;55.750;13.198;2024-02-23T03:16:40;1.95;;;0.80;;
69240;SDS011;56352;55.750;13.198;2024-02-23T03:19:10;2.78;;;0.70;;
69240;SDS011;56352;55.750;13.198;2024-02-23T03:22:20;2.97;;;0.88;;
69240;SDS011;56352;55.750;13.198;2024-02-23T03:24:48;0.93;;;0.60;;
69240;SDS011;56352;55.750;13.198;2024-02-23T03:27:19;3.53;;;0.63;;
69240;SDS011;56352;55.750;13.198;2024-02-23T03:29:46;1.02;;;0.50;;
69240;SDS011;56352;55.750;13.198;2024-02-23T03:32:13;3.03;;;0.73;;
69240;SDS011;56352;55.750;13.198;2024-02-23T03:34:39;1.10;;;0.50;;
69240;SDS011;56352;55.750;13.198;2024-02-23T03:37:06;3.40;;;0.65;;
69240;SDS011;56352;55.750;13.198;2024-02-23T03:39:33;1.88;;;0.60;;
69240;SDS011;56352;55.750;13.198;2024-02-23T03:42:08;2.70;;;0.88;;
69240;SDS011;56352;55.750;13.198;2024-02-23T03:44:34;1.23;;;0.73;;
69240;SDS011;56352;55.750;13.198;2024-02-23T03:47:01;1.10;;;0.40;;
69240;SDS011;56352;55.750;13.198;2024-02-23T03:49:28;3.25;;;1.05;;
69240;SDS011;56352;55.750;13.198;2024-02-23T03:51:54;3.72;;;0.50;;
69240;SDS011;56352;55.750;13.198;2024-02-23T03:54:21;2.63;;;0.50;;
69240;SDS011;56352;55.750;13.198;2024-02-23T03:56:48;2.67;;;0.50;;
69240;SDS011;56352;55.750;13.198;2024-02-23T03:59:15;1.75;;;0.50;;
69240;SDS011;56352;55.750;13.198;2024-02-23T04:01:41;2.53;;;0.65;;
69240;SDS011;56352;55.750;13.198;2024-02-23T04:04:08;2.22;;;0.90;;
69240;SDS011;56352;55.750;13.198;2024-02-23T04:06:35;4.38;;;0.50;;
69240;SDS011;56352;55.750;13.198;2024-02-23T04:09:02;2.13;;;0.50;;
69240;SDS011;56352;55.750;13.198;2024-02-23T04:11:32;2.53;;;0.50;;
69240;SDS011;56352;55.750;13.198;2024-02-23T04:13:59;4.15;;;0.82;;
69240;SDS011;56352;55.750;13.198;2024-02-23T04:16:27;2.00;;;0.50;;
69240;SDS011;56352;55.750;13.198;2024-02-23T04:18:54;2.67;;;0.50;;
69240;SDS011;56352;55.750;13.198;2024-02-23T04:21:21;4.32;;;0.50;;
69240;SDS011;56352;55.750;13.198;2024-02-23T04:23:47;0.35;;;0.30;;
69240;SDS011;56352;55.750;13.198;2024-02-23T04:26:14;3.58;;;0.90;;
69240;SDS011;56352;55.750;13.198;2024-02-23T04:28:41;1.75;;;0.20;;
69240;SDS011;56352;55.750;13.198;2024-02-23T04:31:08;3.65;;;0.65;;
69240;SDS011;56352;55.750;13.198;2024-02-23T04:33:36;5.50;;;0.70;;
69240;SDS011;56352;55.750;13.198;2024-02-23T04:36:13;0.60;;;0.40;;
69240;SDS011;56352;55.750;13.198;2024-02-23T04:38:40;5.07;;;0.52;;
69240;SDS011;56352;55.750;13.198;2024-02-23T04:41:07;1.75;;;0.50;;
69240;SDS011;56352;55.750;13.198;2024-02-23T04:43:34;3.15;;;0.45;;
69240;SDS011;56352;55.750;13.198;2024-02-23T04:46:01;2.85;;;0.55;;
69240;SDS011;56352;55.750;13.198;2024-02-23T04:48:27;1.73;;;0.63;;
69240;SDS011;56352;55.750;13.198;2024-02-23T04:50:55;2.10;;;0.40;;
69240;SDS011;56352;55.750;13.198;2024-02-23T04:53:21;3.22;;;0.68;;
69240;SDS011;56352;55.750;13.198;2024-02-23T04:55:48;2.55;;;0.52;;
69240;SDS011;56352;55.750;13.198;2024-02-23T04:58:15;1.77;;;0.30;;
69240;SDS011;56352;55.750;13.198;2024-02-23T05:00:42;1.40;;;0.45;;
69240;SDS011;56352;55.750;13.198;2024-02-23T05:03:09;2.80;;;0.50;;
69240;SDS011;56352;55.750;13.198;2024-02-23T05:05:38;0.73;;;0.35;;
69240;SDS011;56352;55.750;13.198;2024-02-23T05:08:05;1.55;;;0.52;;
69240;SDS011;56352;55.750;13.198;2024-02-23T05:10:32;1.80;;;0.40;;
69240;SDS011;56352;55.750;13.198;2024-02-23T05:12:58;4.38;;;0.80;;
69240;SDS011;56352;55.750;13.198;2024-02-23T05:15:25;1.38;;;0.52;;
69240;SDS011;56352;55.750;13.198;2024-02-23T05:17:52;3.03;;;0.60;;
69240;SDS011;56352;55.750;13.198;2024-02-23T05:20:18;2.22;;;0.50;;
69240;SDS011;56352;55.750;13.198;2024-02-23T05:22:45;4.47;;;0.70;;
69240;SDS011;56352;55.750;13.198;2024-02-23T05:25:12;4.53;;;0.73;;
69240;SDS011;56352;55.750;13.198;2024-02-23T05:27:38;2.08;;;0.52;;
69240;SDS011;56352;55.750;13.198;2024-02-23T05:30:05;4.63;;;0.60;;
69240;SDS011;56352;55.750;13.198;2024-02-23T05:32:33;3.25;;;0.90;;
69240;SDS011;56352;55.750;13.198;2024-02-23T05:35:00;2.85;;;0.50;;
69240;SDS011;56352;55.750;13.198;2024-02-23T05:37:27;2.30;;;0.50;;
69240;SDS011;56352;55.750;13.198;2024-02-23T05:39:53;1.17;;;0.40;;
69240;SDS011;56352;55.750;13.198;2024-02-23T05:42:20;4.93;;;0.60;;
69240;SDS011;56352;55.750;13.198;2024-02-23T05:44:47;1.48;;;0.55;;
69240;SDS011;56352;55.750;13.198;2024-02-23T05:47:16;1.75;;;0.50;;
69240;SDS011;56352;55.750;13.198;2024-02-23T05:49:44;2.55;;;0.52;;
69240;SDS011;56352;55.750;13.198;2024-02-23T05:52:15;1.90;;;0.70;;
69240;SDS011;56352;55.750;13.198;2024-02-23T05:54:50;2.03;;;0.63;;
69240;SDS011;56352;55.750;13.198;2024-02-23T05:57:18;4.00;;;0.80;;
69240;SDS011;56352;55.750;13.198;2024-02-23T05:59:44;5.25;;;1.10;;
69240;SDS011;56352;55.750;13.198;2024-02-23T06:02:11;3.55;;;0.60;;
69240;SDS011;56352;55.750;13.198;2024-02-23T06:04:40;6.63;;;1.10;;
69240;SDS011;56352;55.750;13.198;2024-02-23T06:07:06;3.47;;;0.68;;
69240;SDS011;56352;55.750;13.198;2024-02-23T06:09:34;4.70;;;1.00;;
69240;SDS011;56352;55.750;13.198;2024-02-23T06:12:03;4.78;;;0.82;;
69240;SDS011;56352;55.750;13.198;2024-02-23T06:14:30;4.20;;;0.85;;
69240;SDS011;56352;55.750;13.198;2024-02-23T06:16:57;5.00;;;0.98;;
69240;SDS011;56352;55.750;13.198;2024-02-23T06:19:24;15.15;;;1.85;;
69240;SDS011;56352;55.750;13.198;2024-02-23T06:21:50;4.97;;;0.95;;
69240;SDS011;56352;55.750;13.198;2024-02-23T06:24:17;5.97;;;1.35;;
69240;SDS011;56352;55.750;13.198;2024-02-23T06:26:44;7.47;;;0.95;;
69240;SDS011;56352;55.750;13.198;2024-02-23T06:29:12;4.25;;;1.42;;
69240;SDS011;56352;55.750;13.198;2024-02-23T06:31:40;3.97;;;0.82;;
69240;SDS011;56352;55.750;13.198;2024-02-23T06:34:08;3.47;;;1.60;;
69240;SDS011;56352;55.750;13.198;2024-02-23T06:36:34;3.22;;;0.50;;
69240;SDS011;56352;55.750;13.198;2024-02-23T06:39:02;9.10;;;1.25;;
69240;SDS011;56352;55.750;13.198;2024-02-23T06:41:29;4.05;;;0.60;;
69240;SDS011;56352;55.750;13.198;2024-02-23T06:43:55;2.67;;;0.60;;
69240;SDS011;56352;55.750;13.198;2024-02-23T06:46:22;3.17;;;0.80;;
69240;SDS011;56352;55.750;13.198;2024-02-23T06:48:49;5.13;;;1.00;;
69240;SDS011;56352;55.750;13.198;2024-02-23T06:51:16;7.25;;;0.93;;
69240;SDS011;56352;55.750;13.198;2024-02-23T06:53:43;2.88;;;1.00;;
69240;SDS011;56352;55.750;13.198;2024-02-23T06:56:09;4.22;;;0.80;;
69240;SDS011;56352;55.750;13.198;2024-02-23T06:58:57;4.25;;;0.80;;
69240;SDS011;56352;55.750;13.198;2024-02-23T07:01:46;3.08;;;1.02;;
69240;SDS011;56352;55.750;13.198;2024-02-23T07:04:14;2.83;;;0.90;;
69240;SDS011;56352;55.750;13.198;2024-02-23T07:06:41;3.33;;;0.88;;
69240;SDS011;56352;55.750;13.198;2024-02-23T07:09:07;1.63;;;0.50;;
69240;SDS011;56352;55.750;13.198;2024-02-23T07:11:34;4.72;;;0.85;;
69240;SDS011;56352;55.750;13.198;2024-02-23T07:14:01;4.55;;;0.80;;
69240;SDS011;56352;55.750;13.198;2024-02-23T07:16:28;3.22;;;0.80;;
69240;SDS011;56352;55.750;13.198;2024-02-23T07:18:54;4.13;;;1.25;;
69240;SDS011;56352;55.750;13.198;2024-02-23T07:21:23;9.10;;;1.35;;
69240;SDS011;56352;55.750;13.198;2024-02-23T07:23:49;8.05;;;1.08;;
69240;SDS011;56352;55.750;13.198;2024-02-23T07:26:16;4.63;;;1.17;;
69240;SDS011;56352;55.750;13.198;2024-02-23T07:28:43;6.63;;;0.80;;
69240;SDS011;56352;55.750;13.198;2024-02-23T07:31:10;4.63;;;1.02;;
69240;SDS011;56352;55.750;13.198;2024-02-23T07:33:37;6.45;;;1.17;;
69240;SDS011;56352;55.750;13.198;2024-02-23T07:36:05;5.72;;;1.73;;
69240;SDS011;56352;55.750;13.198;2024-02-23T07:38:31;3.20;;;0.68;;
69240;SDS011;56352;55.750;13.198;2024-02-23T07:40:58;2.78;;;0.73;;
69240;SDS011;56352;55.750;13.198;2024-02-23T07:43:25;3.08;;;0.70;;
69240;SDS011;56352;55.750;13.198;2024-02-23T07:45:55;7.88;;;1.00;;
69240;SDS011;56352;55.750;13.198;2024-02-23T07:48:22;5.78;;;0.70;;
69240;SDS011;56352;55.750;13.198;2024-02-23T07:50:49;2.10;;;0.73;;
69240;SDS011;56352;55.750;13.198;2024-02-23T07:53:16;3.53;;;0.88;;
69240;SDS011;56352;55.750;13.198;2024-02-23T07:55:42;5.88;;;1.20;;
69240;SDS011;56352;55.750;13.198;2024-02-23T07:58:09;4.53;;;1.02;;
69240;SDS011;56352;55.750;13.198;2024-02-23T08:00:36;3.95;;;0.80;;
69240;SDS011;56352;55.750;13.198;2024-02-23T08:03:04;5.32;;;1.00;;
69240;SDS011;56352;55.750;13.198;2024-02-23T08:05:32;4.43;;;0.93;;
69240;SDS011;56352;55.750;13.198;2024-02-23T08:07:59;3.70;;;0.68;;
69240;SDS011;56352;55.750;13.198;2024-02-23T08:10:26;5.15;;;1.08;;
69240;SDS011;56352;55.750;13.198;2024-02-23T08:12:53;5.80;;;1.00;;
69240;SDS011;56352;55.750;13.198;2024-02-23T08:15:29;2.08;;;0.85;;
69240;SDS011;56352;55.750;13.198;2024-02-23T08:17:58;5.63;;;1.15;;
69240;SDS011;56352;55.750;13.198;2024-02-23T08:20:24;3.65;;;0.95;;
69240;SDS011;56352;55.750;13.198;2024-02-23T08:22:51;6.57;;;1.25;;
69240;SDS011;56352;55.750;13.198;2024-02-23T08:25:18;4.65;;;1.17;;
69240;SDS011;56352;55.750;13.198;2024-02-23T08:27:44;4.10;;;1.10;;
69240;SDS011;56352;55.750;13.198;2024-02-23T08:30:12;5.28;;;1.55;;
69240;SDS011;56352;55.750;13.198;2024-02-23T08:32:40;4.05;;;1.20;;
69240;SDS011;56352;55.750;13.198;2024-02-23T08:35:07;3.38;;;1.08;;
69240;SDS011;56352;55.750;13.198;2024-02-23T08:37:34;6.15;;;1.27;;
69240;SDS011;56352;55.750;13.198;2024-02-23T08:40:01;5.68;;;1.83;;
69240;SDS011;56352;55.750;13.198;2024-02-23T08:42:28;8.25;;;1.17;;
69240;SDS011;56352;55.750;13.198;2024-02-23T08:44:55;6.90;;;1.38;;
69240;SDS011;56352;55.750;13.198;2024-02-23T08:47:21;6.90;;;1.05;;
69240;SDS011;56352;55.750;13.198;2024-02-23T08:49:48;2.65;;;1.10;;
69240;SDS011;56352;55.750;13.198;2024-02-23T08:52:15;3.90;;;1.00;;
69240;SDS011;56352;55.750;13.198;2024-02-23T08:54:41;6.47;;;0.98;;
69240;SDS011;56352;55.750;13.198;2024-02-23T08:57:08;4.95;;;1.23;;
69240;SDS011;56352;55.750;13.198;2024-02-23T08:59:35;8.18;;;1.23;;
69240;SDS011;56352;55.750;13.198;2024-02-23T09:02:02;2.17;;;0.95;;
69240;SDS011;56352;55.750;13.198;2024-02-23T09:04:29;4.32;;;1.27;;
69240;SDS011;56352;55.750;13.198;2024-02-23T09:06:55;5.57;;;1.08;;
69240;SDS011;56352;55.750;13.198;2024-02-23T09:09:22;5.70;;;1.30;;
69240;SDS011;56352;55.750;13.198;2024-02-23T09:11:49;6.47;;;1.42;;
69240;SDS011;56352;55.750;13.198;2024-02-23T09:14:16;4.03;;;1.17;;
69240;SDS011;56352;55.750;13.198;2024-02-23T09:16:43;9.05;;;1.13;;
69240;SDS011;56352;55.750;13.198;2024-02-23T09:19:11;3.28;;;1.00;;
69240;SDS011;56352;55.750;13.198;2024-02-23T09:21:38;6.38;;;2.47;;
69240;SDS011;56352;55.750;13.198;2024-02-23T09:24:05;6.45;;;2.45;;
69240;SDS011;56352;55.750;13.198;2024-02-23T09:26:32;5.93;;;1.20;;
69240;SDS011;56352;55.750;13.198;2024-02-23T09:28:58;2.50;;;0.93;;
69240;SDS011;56352;55.750;13.198;2024-02-23T09:31:48;6.70;;;1.40;;
69240;SDS011;56352;55.750;13.198;2024-02-23T09:34:15;4.30;;;1.00;;
69240;SDS011;56352;55.750;13.198;2024-02-23T09:36:42;7.90;;;1.70;;
69240;SDS011;56352;55.750;13.198;2024-02-23T09:39:12;3.15;;;0.90;;
69240;SDS011;56352;55.750;13.198;2024-02-23T09:41:39;5.10;;;1.15;;
69240;SDS011;56352;55.750;13.198;2024-02-23T09:44:06;3.63;;;1.02;;
69240;SDS011;56352;55.750;13.198;2024-02-23T09:46:36;3.50;;;1.02;;
69240;SDS011;56352;55.750;13.198;2024-02-23T09:49:03;9.43;;;1.13;;
69240;SDS011;56352;55.750;13.198;2024-02-23T09:51:33;2.50;;;0.90;;
69240;SDS011;56352;55.750;13.198;2024-02-23T09:54:02;4.07;;;0.88;;
69240;SDS011;56352;55.750;13.198;2024-02-23T09:56:29;4.97;;;1.10;;
69240;SDS011;56352;55.750;13.198;2024-02-23T09:58:58;4.13;;;1.02;;
69240;SDS011;56352;55.750;13.198;2024-02-23T10:01:27;5.30;;;1.40;;
69240;SDS011;56352;55.750;13.198;2024-02-23T10:03:57;6.10;;;1.10;;
69240;SDS011;56352;55.750;13.198;2024-02-23T10:06:25;5.03;;;1.10;;
69240;SDS011;56352;55.750;13.198;2024-02-23T10:08:52;5.03;;;1.23;;
69240;SDS011;56352;55.750;13.198;2024-02-23T10:11:20;3.45;;;1.10;;
69240;SDS011;56352;55.750;13.198;2024-02-23T10:13:48;13.30;;;1.63;;
69240;SDS011;56352;55.750;13.198;2024-02-23T10:16:21;7.03;;;1.30;;
69240;SDS011;56352;55.750;13.198;2024-02-23T10:18:48;7.13;;;1.23;;
69240;SDS011;56352;55.750;13.198;2024-02-23T10:21:15;4.93;;;1.10;;
69240;SDS011;56352;55.750;13.198;2024-02-23T10:23:46;3.20;;;0.80;;
69240;SDS011;56352;55.750;13.198;2024-02-23T10:26:14;3.05;;;0.80;;
69240;SDS011;56352;55.750;13.198;2024-02-23T10:28:45;3.05;;;0.90;;
69240;SDS011;56352;55.750;13.198;2024-02-23T10:31:13;2.47;;;0.50;;
69240;SDS011;56352;55.750;13.198;2024-02-23T10:33:40;3.42;;;0.80;;
69240;SDS011;56352;55.750;13.198;2024-02-23T10:36:08;2.85;;;0.65;;
69240;SDS011;56352;55.750;13.198;2024-02-23T10:38:37;4.63;;;0.85;;
69240;SDS011;56352;55.750;13.198;2024-02-23T10:41:07;1.77;;;0.50;;
69240;SDS011;56352;55.750;13.198;2024-02-23T10:43:40;1.90;;;0.73;;
69240;SDS011;56352;55.750;13.198;2024-02-23T10:46:11;2.20;;;0.93;;
69240;SDS011;56352;55.750;13.198;2024-02-23T10:48:43;2.47;;;0.70;;
69240;SDS011;56352;55.750;13.198;2024-02-23T10:51:13;2.65;;;0.70;;
69240;SDS011;56352;55.750;13.198;2024-02-23T10:53:45;1.27;;;0.68;;
69240;SDS011;56352;55.750;13.198;2024-02-23T10:56:13;4.07;;;0.80;;
69240;SDS011;56352;55.750;13.198;2024-02-23T10:58:39;1.85;;;0.55;;
69240;SDS011;56352;55.750;13.198;2024-02-23T11:01:06;2.15;;;0.68;;
69240;SDS011;56352;55.750;13.198;2024-02-23T11:03:34;4.72;;;1.02;;
69240;SDS011;56352;55.750;13.198;2024-02-23T11:06:05;1.08;;;0.47;;
69240;SDS011;56352;55.750;13.198;2024-02-23T11:08:33;3.30;;;0.80;;
69240;SDS011;56352;55.750;13.198;2024-02-23T11:11:09;4.38;;;0.98;;
69240;SDS011;56352;55.750;13.198;2024-02-23T11:13:38;4.37;;;0.70;;
69240;SDS011;56352;55.750;13.198;2024-02-23T11:16:06;4.60;;;0.80;;
69240;SDS011;56352;55.750;13.198;2024-02-23T11:18:35;7.13;;;1.10;;
69240;SDS011;56352;55.750;13.198;2024-02-23T11:21:03;3.47;;;1.10;;
69240;SDS011;56352;55.750;13.198;2024-02-23T11:23:40;8.85;;;1.02;;
69240;SDS011;56352;55.750;13.198;2024-02-23T11:26:12;2.15;;;0.77;;
69240;SDS011;56352;55.750;13.198;2024-02-23T11:28:43;4.70;;;1.10;;
69240;SDS011;56352;55.750;13.198;2024-02-23T11:31:19;3.92;;;0.93;;
69240;SDS011;56352;55.750;13.198;2024-02-23T11:33:53;3.88;;;1.05;;
69240;SDS011;56352;55.750;13.198;2024-02-23T11:36:34;3.70;;;1.58;;
69240;SDS011;56352;55.750;13.198;2024-02-23T11:39:02;4.45;;;1.30;;
69240;SDS011;56352;55.750;13.198;2024-02-23T11:41:29;7.63;;;1.00;;
69240;SDS011;56352;55.750;13.198;2024-02-23T11:43:56;5.32;;;0.90;;
69240;SDS011;56352;55.750;13.198;2024-02-23T11:46:24;5.63;;;1.13;;
69240;SDS011;56352;55.750;13.198;2024-02-23T11:48:51;3.78;;;0.80;;
69240;SDS011;56352;55.750;13.198;2024-02-23T11:51:22;7.43;;;1.30;;
69240;SDS011;56352;55.750;13.198;2024-02-23T11:53:49;7.05;;;1.10;;
69240;SDS011;56352;55.750;13.198;2024-02-23T11:56:17;6.53;;;2.00;;
69240;SDS011;56352;55.750;13.198;2024-02-23T11:58:46;5.90;;;1.17;;
69240;SDS011;56352;55.750;13.198;2024-02-23T12:01:13;3.35;;;0.95;;
69240;SDS011;56352;55.750;13.198;2024-02-23T12:03:40;5.00;;;1.13;;
69240;SDS011;56352;55.750;13.198;2024-02-23T12:06:07;4.53;;;0.90;;
69240;SDS011;56352;55.750;13.198;2024-02-23T12:08:34;3.38;;;1.08;;
69240;SDS011;56352;55.750;13.198;2024-02-23T12:11:08;4.18;;;1.10;;
69240;SDS011;56352;55.750;13.198;2024-02-23T12:13:35;5.03;;;1.05;;
69240;SDS011;56352;55.750;13.198;2024-02-23T12:16:02;3.47;;;1.00;;
69240;SDS011;56352;55.750;13.198;2024-02-23T12:18:29;6.30;;;1.20;;
69240;SDS011;56352;55.750;13.198;2024-02-23T12:21:00;6.65;;;1.10;;
69240;SDS011;56352;55.750;13.198;2024-02-23T12:23:42;4.43;;;1.10;;
69240;SDS011;56352;55.750;13.198;2024-02-23T12:26:14;4.90;;;1.27;;
69240;SDS011;56352;55.750;13.198;2024-02-23T12:28:42;4.38;;;1.15;;
69240;SDS011;56352;55.750;13.198;2024-02-23T12:31:10;3.80;;;1.20;;
69240;SDS011;56352;55.750;13.198;2024-02-23T12:33:38;3.50;;;1.00;;
69240;SDS011;56352;55.750;13.198;2024-02-23T12:36:08;3.80;;;1.45;;
69240;SDS011;56352;55.750;13.198;2024-02-23T12:38:35;4.15;;;0.90;;
69240;SDS011;56352;55.750;13.198;2024-02-23T12:41:04;3.25;;;1.38;;
69240;SDS011;56352;55.750;13.198;2024-02-23T12:43:31;6.13;;;1.15;;
69240;SDS011;56352;55.750;13.198;2024-02-23T12:45:58;4.70;;;1.23;;
69240;SDS011;56352;55.750;13.198;2024-02-23T12:48:24;4.47;;;0.98;;
69240;SDS011;56352;55.750;13.198;2024-02-23T12:50:51;3.88;;;1.20;;
69240;SDS011;56352;55.750;13.198;2024-02-23T12:53:31;3.50;;;1.50;;
69240;SDS011;56352;55.750;13.198;2024-02-23T12:58:30;3.65;;;1.33;;
69240;SDS011;56352;55.750;13.198;2024-02-23T13:00:57;4.15;;;1.50;;
69240;SDS011;56352;55.750;13.198;2024-02-23T13:03:25;3.35;;;1.50;;
69240;SDS011;56352;55.750;13.198;2024-02-23T13:05:53;5.65;;;1.35;;
69240;SDS011;56352;55.750;13.198;2024-02-23T13:08:21;8.32;;;1.35;;
69240;SDS011;56352;55.750;13.198;2024-02-23T13:10:49;3.67;;;0.93;;
69240;SDS011;56352;55.750;13.198;2024-02-23T13:13:19;2.90;;;0.98;;
69240;SDS011;56352;55.750;13.198;2024-02-23T13:15:47;2.97;;;1.05;;
69240;SDS011;56352;55.750;13.198;2024-02-23T13:18:15;5.78;;;1.02;;
69240;SDS011;56352;55.750;13.198;2024-02-23T13:20:42;4.13;;;1.10;;
69240;SDS011;56352;55.750;13.198;2024-02-23T13:23:09;4.95;;;1.10;;
69240;SDS011;56352;55.750;13.198;2024-02-23T13:25:36;4.32;;;0.98;;
69240;SDS011;56352;55.750;13.198;2024-02-23T13:28:03;4.80;;;1.17;;
69240;SDS011;56352;55.750;13.198;2024-02-23T13:30:31;2.33;;;1.08;;
69240;SDS011;56352;55.750;13.198;2024-02-23T13:32:58;4.40;;;1.25;;
69240;SDS011;56352;55.750;13.198;2024-02-23T13:35:25;4.30;;;1.23;;
69240;SDS011;56352;55.750;13.198;2024-02-23T13:37:52;5.18;;;1.35;;
69240;SDS011;56352;55.750;13.198;2024-02-23T13:40:20;3.35;;;1.40;;
69240;SDS011;56352;55.750;13.198;2024-02-23T13:42:46;3.22;;;1.10;;
69240;SDS011;56352;55.750;13.198;2024-02-23T13:45:16;5.10;;;1.55;;
69240;SDS011;56352;55.750;13.198;2024-02-23T13:47:44;4.50;;;1.45;;
69240;SDS011;56352;55.750;13.198;2024-02-23T13:50:25;4.32;;;1.20;;
69240;SDS011;56352;55.750;13.198;2024-02-23T13:52:52;5.10;;;1.38;;
69240;SDS011;56352;55.750;13.198;2024-02-23T13:55:19;4.32;;;1.15;;
69240;SDS011;56352;55.750;13.198;2024-02-23T13:57:49;3.10;;;1.00;;
69240;SDS011;56352;55.750;13.198;2024-02-23T14:00:16;5.22;;;1.15;;
69240;SDS011;56352;55.750;13.198;2024-02-23T14:02:45;5.20;;;1.30;;
69240;SDS011;56352;55.750;13.198;2024-02-23T14:05:12;5.15;;;1.23;;
69240;SDS011;56352;55.750;13.198;2024-02-23T14:07:39;5.07;;;1.25;;
69240;SDS011;56352;55.750;13.198;2024-02-23T14:10:06;1.65;;;0.98;;
69240;SDS011;56352;55.750;13.198;2024-02-23T14:12:34;3.00;;;0.98;;
69240;SDS011;56352;55.750;13.198;2024-02-23T14:15:01;4.72;;;1.60;;
69240;SDS011;56352;55.750;13.198;2024-02-23T14:17:27;5.30;;;1.40;;
69240;SDS011;56352;55.750;13.198;2024-02-23T14:19:54;3.25;;;1.05;;
69240;SDS011;56352;55.750;13.198;2024-02-23T14:22:22;3.42;;;1.02;;
69240;SDS011;56352;55.750;13.198;2024-02-23T14:24:49;5.30;;;1.58;;
69240;SDS011;56352;55.750;13.198;2024-02-23T14:27:16;4.95;;;1.13;;
69240;SDS011;56352;55.750;13.198;2024-02-23T14:29:43;3.50;;;1.02;;
69240;SDS011;56352;55.750;13.198;2024-02-23T14:32:10;2.90;;;1.30;;
69240;SDS011;56352;55.750;13.198;2024-02-23T14:34:41;5.80;;;1.35;;
69240;SDS011;56352;55.750;13.198;2024-02-23T14:37:09;3.10;;;1.33;;
69240;SDS011;56352;55.750;13.198;2024-02-23T14:39:36;3.80;;;1.15;;
69240;SDS011;56352;55.750;13.198;2024-02-23T14:42:02;4.72;;;1.48;;
69240;SDS011;56352;55.750;13.198;2024-02-23T14:44:29;4.38;;;1.27;;
69240;SDS011;56352;55.750;13.198;2024-02-23T14:46:56;3.75;;;1.35;;